Time;durP1;ratioP1;P1;durP2;ratioP2;P2;SDS_P1;SDS_P2;PMS_P1;PMS_P2;Temp;Humidity;BMP_temperature;BMP_pressure;BME280_temperature;BME280_humidity;BME280_pressure;Samples;Min_cycle;Max_cycle;Signal;HPM_P1;HPM_P2
2022/06/07 00:02:29;;;;;;;8.68;4.60;;;19.20;66.40;;;;;;5075082;28;20017;-12
2022/06/07 00:04:55;;;;;;;10.48;5.15;;;19.20;66.70;;;;;;5074905;28;20534;-12
2022/06/07 00:07:23;;;;;;;8.55;4.38;;;19.10;66.90;;;;;;5075022;28;20079;-12
2022/06/07 00:09:49;;;;;;;8.30;5.53;;;19.10;66.60;;;;;;5074956;28;20059;-12
2022/06/07 00:12:17;;;;;;;8.02;5.00;;;19.10;67.30;;;;;;5074421;28;20170;-12
2022/06/07 00:14:44;;;;;;;9.77;4.88;;;19.00;67.20;;;;;;5074601;28;20119;-12
2022/06/07 00:17:11;;;;;;;6.32;4.63;;;19.00;67.40;;;;;;5074554;28;20024;-12
2022/06/07 00:19:39;;;;;;;7.97;4.57;;;19.00;67.40;;;;;;5074541;28;20029;-12
2022/06/07 00:22:05;;;;;;;5.97;4.28;;;18.90;67.40;;;;;;5074498;28;20025;-12
2022/06/07 00:24:32;;;;;;;6.80;4.25;;;18.90;67.40;;;;;;5074119;28;20469;-13
2022/06/07 00:26:59;;;;;;;7.88;4.53;;;18.90;67.40;;;;;;5074801;28;20093;-12
2022/06/07 00:29:27;;;;;;;8.63;5.15;;;18.80;67.80;;;;;;5074384;28;20052;-12
2022/06/07 00:31:53;;;;;;;10.23;6.10;;;18.80;68.10;;;;;;5074433;28;20377;-12
2022/06/07 00:34:20;;;;;;;11.82;6.63;;;18.80;69.30;;;;;;5072842;28;20035;-12
2022/06/07 00:36:46;;;;;;;13.02;7.20;;;18.70;69.30;;;;;;5074809;28;20017;-12
2022/06/07 00:39:12;;;;;;;9.75;6.18;;;18.70;71.50;;;;;;5074346;28;20043;-12
2022/06/07 00:41:38;;;;;;;9.10;6.50;;;18.70;71.20;;;;;;5074423;28;20056;-12
2022/06/07 00:44:33;;;;;;;8.30;5.32;;;18.70;70.50;;;;;;5074366;28;20017;-12
2022/06/07 00:47:01;;;;;;;9.55;5.72;;;18.70;70.50;;;;;;5074041;28;20039;-12
2022/06/07 00:49:32;;;;;;;10.88;6.30;;;18.70;70.60;;;;;;5074221;28;20023;-12
2022/06/07 00:51:58;;;;;;;9.30;6.07;;;18.80;70.60;;;;;;5073869;28;20538;-11
2022/06/07 00:54:27;;;;;;;11.80;6.25;;;18.90;70.70;;;;;;5073591;28;20116;-11
2022/06/07 00:56:53;;;;;;;8.45;5.55;;;18.90;70.40;;;;;;5074818;28;20043;-11
2022/06/07 00:59:19;;;;;;;8.52;5.00;;;18.90;70.40;;;;;;5074076;28;20062;-12
2022/06/07 01:01:46;;;;;;;7.65;5.28;;;19.00;69.70;;;;;;5073744;28;20074;-11
2022/06/07 01:04:11;;;;;;;7.97;4.90;;;19.00;69.40;;;;;;5073322;28;20017;-12
2022/06/07 01:12:06;;;;;;;9.50;5.93;;;19.10;68.90;;;;;;5073559;28;20044;-11
2022/06/07 01:14:32;;;;;;;10.52;5.90;;;19.10;69.10;;;;;;5073044;28;20049;-12
2022/06/07 01:16:58;;;;;;;10.45;6.10;;;19.10;68.80;;;;;;5073791;28;20378;-12
2022/06/07 01:19:25;;;;;;;8.65;5.40;;;19.20;68.60;;;;;;5073391;28;20051;-12
2022/06/07 01:21:51;;;;;;;9.75;5.80;;;19.20;68.50;;;;;;5073872;28;20033;-12
2022/06/07 01:24:18;;;;;;;6.75;5.10;;;19.20;68.60;;;;;;5073078;28;20105;-11
2022/06/07 01:26:44;;;;;;;7.35;4.35;;;19.20;68.20;;;;;;5073572;28;20032;-12
2022/06/07 01:29:12;;;;;;;7.80;4.90;;;19.20;68.40;;;;;;5073251;28;20383;-12
2022/06/07 01:31:38;;;;;;;7.18;4.90;;;19.20;68.10;;;;;;5073612;28;20035;-12
2022/06/07 01:34:04;;;;;;;11.10;6.30;;;19.30;68.20;;;;;;5073495;28;20025;-12
2022/06/07 01:36:31;;;;;;;10.85;6.32;;;19.20;68.70;;;;;;5073261;28;20024;-12
2022/06/07 01:41:54;;;;;;;7.28;5.03;;;19.30;68.80;;;;;;5073786;28;20059;-12
2022/06/07 01:44:32;;;;;;;8.77;4.82;;;19.20;68.60;;;;;;5073384;28;20063;-12
2022/06/07 01:47:00;;;;;;;11.88;7.05;;;19.20;68.80;;;;;;5073446;28;20023;-12
2022/06/07 01:49:27;;;;;;;10.02;5.60;;;19.20;69.00;;;;;;5073060;28;20064;-12
2022/06/07 01:51:54;;;;;;;11.77;5.32;;;19.20;69.40;;;;;;5072985;28;20418;-12
2022/06/07 01:54:21;;;;;;;8.13;6.00;;;19.20;69.00;;;;;;5072996;28;20028;-12
2022/06/07 01:56:49;;;;;;;10.63;7.50;;;19.20;69.20;;;;;;5073040;28;20029;-12
2022/06/07 01:59:16;;;;;;;12.23;8.32;;;19.20;69.10;;;;;;5073260;28;20033;-11
2022/06/07 02:01:43;;;;;;;10.50;5.78;;;19.20;69.70;;;;;;5073238;28;20040;-12
2022/06/07 02:04:10;;;;;;;9.85;6.05;;;19.30;70.10;;;;;;5073241;28;20060;-11
2022/06/07 02:06:37;;;;;;;8.90;6.07;;;19.30;69.80;;;;;;5072765;28;20480;-12
2022/06/07 02:09:06;;;;;;;14.23;8.18;;;19.30;69.60;;;;;;5073129;28;20029;-12
2022/06/07 02:11:33;;;;;;;8.98;5.60;;;19.30;71.00;;;;;;5072882;28;20032;-11
2022/06/07 02:13:59;;;;;;;10.93;5.65;;;19.30;70.70;;;;;;5072627;28;20067;-11
2022/06/07 02:16:25;;;;;;;12.93;8.27;;;19.30;69.90;;;;;;5076727;28;20025;-11
2022/06/07 02:18:52;;;;;;;9.48;6.25;;;19.30;70.40;;;;;;5077441;28;20043;-11
2022/06/07 02:21:21;;;;;;;14.00;8.60;;;19.30;70.50;;;;;;5077182;28;20527;-11
2022/06/07 02:23:49;;;;;;;11.25;7.47;;;19.30;70.90;;;;;;5076681;28;20025;-12
2022/06/07 02:26:30;;;;;;;11.35;7.32;;;19.30;71.60;;;;;;5058798;28;20027;-12
2022/06/07 02:29:05;;;;;;;11.88;7.88;;;19.30;71.90;;;;;;5076981;28;20036;-14
2022/06/07 02:31:34;;;;;;;8.73;6.13;;;19.30;72.70;;;;;;5075599;28;20017;-11
2022/06/07 02:34:01;;;;;;;9.10;6.47;;;19.30;72.10;;;;;;5076523;28;20058;-12
2022/06/07 02:36:31;;;;;;;12.75;6.93;;;19.20;71.80;;;;;;5076641;28;20047;-11
2022/06/07 02:38:58;;;;;;;9.88;7.53;;;19.30;72.60;;;;;;5076602;28;20415;-13
2022/06/07 02:41:26;;;;;;;10.68;7.72;;;19.20;73.10;;;;;;5076687;28;20024;-12
2022/06/07 02:43:53;;;;;;;15.30;7.97;;;19.20;73.50;;;;;;5076356;28;20044;-12
2022/06/07 02:46:19;;;;;;;10.30;7.63;;;19.20;73.90;;;;;;5076374;28;20020;-12
2022/06/07 02:48:46;;;;;;;11.57;7.03;;;19.10;74.50;;;;;;5076225;28;20388;-12
2022/06/07 02:51:12;;;;;;;15.18;7.50;;;19.10;74.40;;;;;;5076249;28;20024;-12
2022/06/07 02:53:38;;;;;;;9.05;6.75;;;19.10;74.00;;;;;;5076296;28;20028;-12
2022/06/07 02:56:05;;;;;;;8.60;6.05;;;19.00;73.40;;;;;;5076452;28;20055;-12
2022/06/07 02:58:31;;;;;;;10.90;7.25;;;19.00;73.40;;;;;;5075976;28;20476;-11
2022/06/07 03:01:00;;;;;;;13.40;8.65;;;19.00;73.60;;;;;;5076035;28;20024;-11
2022/06/07 03:03:27;;;;;;;11.25;7.40;;;19.00;73.80;;;;;;5076339;28;20112;-12
2022/06/07 03:05:54;;;;;;;9.95;7.32;;;19.00;74.30;;;;;;5075908;28;20054;-12
2022/06/07 03:08:21;;;;;;;10.85;7.25;;;19.00;74.50;;;;;;5075904;28;20029;-12
2022/06/07 03:10:48;;;;;;;12.00;8.38;;;19.00;74.40;;;;;;5075803;28;20469;-12
2022/06/07 03:13:15;;;;;;;13.15;9.48;;;19.00;74.40;;;;;;5074981;28;20198;-12
2022/06/07 03:15:42;;;;;;;11.38;7.10;;;19.10;74.40;;;;;;5076088;28;20025;-12
2022/06/07 03:18:08;;;;;;;11.95;7.90;;;19.10;74.30;;;;;;5075748;28;20101;-12
2022/06/07 03:20:35;;;;;;;12.20;7.72;;;19.10;74.20;;;;;;5075743;28;20028;-12
2022/06/07 03:23:02;;;;;;;10.45;7.57;;;19.20;74.40;;;;;;5075838;28;20028;-12
2022/06/07 03:25:28;;;;;;;13.23;8.35;;;19.30;74.30;;;;;;5075930;28;20047;-12
2022/06/07 03:27:54;;;;;;;13.38;8.80;;;19.30;74.20;;;;;;5075147;28;20482;-13
2022/06/07 03:30:21;;;;;;;11.43;7.82;;;19.40;74.10;;;;;;5075674;28;20032;-13
2022/06/07 03:32:47;;;;;;;12.70;8.48;;;19.40;74.10;;;;;;5075458;28;20123;-12
2022/06/07 03:35:15;;;;;;;13.80;9.05;;;19.50;74.10;;;;;;5076002;28;20024;-12
2022/06/07 03:37:41;;;;;;;17.90;11.88;;;19.50;74.00;;;;;;5075551;28;20028;-13
2022/06/07 03:40:12;;;;;;;16.92;11.77;;;19.60;74.20;;;;;;5075506;28;20056;-12
2022/06/07 03:42:38;;;;;;;14.30;9.60;;;19.70;74.90;;;;;;5075220;28;20420;-11
2022/06/07 03:45:05;;;;;;;13.35;10.00;;;19.70;74.60;;;;;;5075269;28;20032;-11
2022/06/07 03:47:32;;;;;;;13.73;9.50;;;19.70;74.80;;;;;;5075491;28;20024;-13
2022/06/07 03:49:58;;;;;;;18.05;11.43;;;19.80;75.10;;;;;;5075136;28;20503;-12
2022/06/07 03:52:24;;;;;;;15.15;10.23;;;19.80;75.10;;;;;;5073827;28;20024;-12
2022/06/07 03:54:50;;;;;;;15.30;9.70;;;19.90;75.20;;;;;;5075207;28;20032;-12
2022/06/07 03:57:16;;;;;;;14.65;10.27;;;19.90;75.50;;;;;;5074989;28;20028;-12
2022/06/07 03:59:43;;;;;;;13.38;9.13;;;19.90;75.70;;;;;;5075240;28;20031;-13
2022/06/07 04:02:09;;;;;;;16.60;10.40;;;19.90;75.80;;;;;;5074013;28;20039;-14
2022/06/07 04:04:37;;;;;;;20.42;12.00;;;19.90;76.00;;;;;;5074975;28;20107;-13
2022/06/07 04:09:49;;;;;;;14.25;8.93;;;19.90;76.50;;;;;;5075023;28;20082;-14
2022/06/07 04:12:17;;;;;;;14.80;9.50;;;19.90;76.90;;;;;;5074834;28;20024;-12
2022/06/07 04:14:46;;;;;;;14.30;9.70;;;19.90;77.30;;;;;;5074608;28;20025;-11
2022/06/07 04:17:13;;;;;;;20.80;12.73;;;19.90;77.20;;;;;;5074546;28;20421;-12
2022/06/07 04:19:40;;;;;;;21.15;13.00;;;19.80;79.50;;;;;;5074709;28;20021;-12
2022/06/07 04:22:07;;;;;;;16.40;11.55;;;19.80;81.60;;;;;;5074660;28;20441;-12
2022/06/07 04:24:33;;;;;;;16.98;11.52;;;19.80;82.10;;;;;;5074105;28;20376;-12
2022/06/07 04:26:59;;;;;;;15.00;10.68;;;19.70;82.00;;;;;;5074420;28;20024;-14
2022/06/07 04:29:25;;;;;;;15.95;10.93;;;19.70;82.10;;;;;;5074372;28;20365;-14
2022/06/07 04:31:52;;;;;;;19.75;11.18;;;19.70;80.20;;;;;;5074567;28;20029;-14
2022/06/07 04:34:21;;;;;;;12.88;8.85;;;19.70;79.70;;;;;;5074271;28;20036;-14
2022/06/07 04:36:47;;;;;;;20.50;10.27;;;19.80;79.60;;;;;;5074126;28;20061;-14
2022/06/07 04:39:13;;;;;;;12.48;8.85;;;19.70;79.70;;;;;;5073376;28;20107;-14
2022/06/07 04:41:40;;;;;;;10.07;7.10;;;19.80;79.80;;;;;;5072866;28;20480;-15
2022/06/07 04:44:06;;;;;;;11.23;6.25;;;19.80;79.30;;;;;;5074073;28;20056;-13
2022/06/07 04:46:32;;;;;;;15.98;6.47;;;19.80;79.20;;;;;;5074098;28;20035;-13
2022/06/07 04:48:58;;;;;;;11.55;7.97;;;19.80;79.00;;;;;;5074082;28;20091;-15
2022/06/07 04:51:30;;;;;;;7.75;5.95;;;19.90;81.30;;;;;;5074294;28;20104;-13
2022/06/07 04:53:58;;;;;;;9.77;6.10;;;19.90;79.60;;;;;;5073753;28;20040;-14
2022/06/07 04:56:27;;;;;;;9.40;6.63;;;19.80;79.20;;;;;;5074392;28;20028;-19
2022/06/07 04:58:53;;;;;;;10.43;7.25;;;19.90;79.20;;;;;;5074076;28;20095;-14
2022/06/07 05:01:30;;;;;;;12.63;7.53;;;19.90;78.90;;;;;;5073918;28;20025;-14
2022/06/07 05:03:57;;;;;;;14.80;8.40;;;19.90;78.70;;;;;;5073880;28;20031;-13
2022/06/07 05:06:30;;;;;;;12.23;7.05;;;20.00;78.80;;;;;;5073402;28;20033;-13
2022/06/07 05:09:03;;;;;;;9.32;6.80;;;20.00;78.90;;;;;;5074220;28;20023;-15
2022/06/07 05:11:29;;;;;;;10.15;7.65;;;20.10;79.10;;;;;;5073637;28;20510;-14
2022/06/07 05:13:57;;;;;;;12.27;7.25;;;20.10;79.00;;;;;;5073296;28;20135;-15
2022/06/07 05:16:24;;;;;;;12.00;6.80;;;20.10;79.30;;;;;;5073245;28;20020;-14
2022/06/07 05:18:52;;;;;;;8.82;5.85;;;20.10;79.40;;;;;;5072213;28;20032;-12
2022/06/07 05:21:20;;;;;;;8.57;6.30;;;20.10;79.20;;;;;;5073675;28;20024;-13
2022/06/07 05:23:45;;;;;;;9.15;5.40;;;20.20;79.10;;;;;;5073644;28;20030;-12
2022/06/07 05:26:29;;;;;;;6.68;4.90;;;20.20;78.60;;;;;;5073376;28;20024;-12
2022/06/07 05:28:56;;;;;;;;;;;20.20;78.70;;;;;;5074627;28;20357;-12
2022/06/07 05:31:23;;;;;;;8.75;4.70;;;20.20;78.60;;;;;;5073292;28;19911;-12
2022/06/07 05:33:49;;;;;;;9.05;5.40;;;20.30;78.00;;;;;;5073501;28;20058;-13
2022/06/07 05:36:16;;;;;;;7.50;4.93;;;20.30;77.90;;;;;;5073067;28;20511;-12
2022/06/07 05:38:42;;;;;;;9.10;5.60;;;20.40;77.90;;;;;;5073152;28;20108;-13
2022/06/07 05:41:19;;;;;;;8.57;5.50;;;20.30;78.00;;;;;;5073511;28;20031;-12
2022/06/07 05:43:45;;;;;;;7.07;4.78;;;20.40;77.80;;;;;;5073571;28;20542;-14
2022/06/07 05:46:11;;;;;;;10.63;5.93;;;20.40;77.70;;;;;;5073429;28;20040;-14
2022/06/07 05:48:37;;;;;;;10.52;5.50;;;20.40;77.90;;;;;;5072889;28;20032;-13
2022/06/07 05:51:04;;;;;;;9.35;5.47;;;20.40;77.80;;;;;;5072778;28;20226;-13
2022/06/07 05:53:30;;;;;;;6.85;5.57;;;20.40;77.60;;;;;;5073073;28;20052;-13
2022/06/07 05:55:56;;;;;;;8.13;6.10;;;20.40;77.80;;;;;;5073008;28;20036;-13
2022/06/07 05:58:23;;;;;;;7.68;5.72;;;20.40;77.80;;;;;;5073357;28;20479;-12
2022/06/07 06:00:49;;;;;;;10.75;5.63;;;20.40;77.90;;;;;;5072977;28;20037;-14
2022/06/07 06:03:15;;;;;;;8.57;5.53;;;20.40;78.00;;;;;;5073863;28;20480;-14
2022/06/07 06:05:46;;;;;;;10.60;6.05;;;20.40;78.40;;;;;;5072935;28;20514;-13
2022/06/07 06:11:13;;;;;;;12.40;5.85;;;20.30;79.10;;;;;;5073559;28;20519;-13
2022/06/07 06:13:40;;;;;;;11.73;6.10;;;20.30;79.30;;;;;;5072835;28;20105;-14
2022/06/07 06:16:09;;;;;;;7.80;5.30;;;20.20;79.60;;;;;;5073095;28;20020;-14
2022/06/07 06:18:37;;;;;;;11.55;6.00;;;20.10;79.90;;;;;;5072601;28;20025;-13
2022/06/07 06:21:03;;;;;;;10.43;5.93;;;20.10;80.50;;;;;;5072790;28;20025;-13
2022/06/07 06:23:29;;;;;;;13.75;5.72;;;20.00;81.00;;;;;;5072669;28;20020;-13
2022/06/07 06:25:56;;;;;;;12.10;5.85;;;19.90;81.30;;;;;;5073070;28;20024;-14
2022/06/07 06:28:22;;;;;;;10.93;6.03;;;19.90;82.00;;;;;;5073382;28;20028;-13
2022/06/07 06:30:49;;;;;;;12.27;6.22;;;19.70;83.20;;;;;;5072999;28;20032;-13
2022/06/07 06:33:16;;;;;;;11.40;6.32;;;19.60;83.00;;;;;;5073246;28;20094;-12
2022/06/07 06:35:51;;;;;;;13.55;6.20;;;19.60;83.40;;;;;;5072967;28;20066;-12
2022/06/07 06:38:18;;;;;;;10.63;6.32;;;19.50;84.00;;;;;;5072341;28;20028;-12
2022/06/07 06:40:45;;;;;;;11.52;6.05;;;19.40;83.60;;;;;;5073084;28;20052;-11
2022/06/07 06:43:13;;;;;;;11.65;7.03;;;19.40;83.70;;;;;;5072572;28;20025;-12
2022/06/07 06:45:41;;;;;;;9.50;6.15;;;19.40;84.10;;;;;;5072539;28;20043;-12
2022/06/07 06:48:09;;;;;;;12.98;6.55;;;19.30;84.60;;;;;;5072666;28;20020;-13
2022/06/07 06:50:36;;;;;;;11.68;7.10;;;19.30;84.60;;;;;;5072565;28;20055;-13
2022/06/07 06:53:03;;;;;;;14.18;7.07;;;19.30;84.70;;;;;;5072747;28;20036;-14
2022/06/07 06:55:29;;;;;;;11.80;6.43;;;19.20;84.90;;;;;;5072426;28;20566;-12
2022/06/07 06:57:56;;;;;;;10.38;6.45;;;19.10;85.30;;;;;;5072734;28;20025;-13
2022/06/07 07:00:22;;;;;;;13.52;6.90;;;19.10;84.60;;;;;;5071353;28;20059;-12
2022/06/07 07:02:49;;;;;;;10.75;6.47;;;19.00;85.00;;;;;;5074666;28;20107;-12
2022/06/07 07:05:16;;;;;;;10.75;6.18;;;18.90;85.00;;;;;;5075976;28;20133;-12
2022/06/07 07:07:43;;;;;;;10.70;5.97;;;18.90;85.00;;;;;;5076315;28;20029;-12
2022/06/07 07:10:10;;;;;;;11.95;7.30;;;18.80;85.40;;;;;;5075870;28;20528;-12
2022/06/07 07:12:37;;;;;;;11.30;5.75;;;18.60;85.30;;;;;;5069796;28;20110;-12
2022/06/07 07:15:05;;;;;;;11.30;5.53;;;18.60;85.50;;;;;;5075951;28;20029;-12
2022/06/07 07:17:31;;;;;;;10.80;4.97;;;18.50;85.60;;;;;;5075699;28;20024;-12
2022/06/07 07:19:57;;;;;;;9.15;5.00;;;18.40;85.70;;;;;;5075719;28;20032;-11
2022/06/07 07:22:24;;;;;;;9.82;5.95;;;18.40;85.60;;;;;;5075511;28;20029;-12
2022/06/07 07:24:50;;;;;;;7.97;4.70;;;18.30;85.90;;;;;;5075897;28;20052;-11
2022/06/07 07:27:18;;;;;;;7.68;4.57;;;18.40;86.00;;;;;;5076226;28;20507;-12
2022/06/07 07:29:44;;;;;;;10.73;4.72;;;18.40;85.80;;;;;;5075576;28;20024;-11
2022/06/07 07:32:09;;;;;;;8.15;4.28;;;18.30;86.00;;;;;;5075429;28;20025;-12
2022/06/07 07:34:36;;;;;;;9.35;4.30;;;18.20;86.00;;;;;;5075298;28;20032;-12
2022/06/07 07:37:02;;;;;;;8.75;3.83;;;18.20;85.90;;;;;;5075345;28;20027;-12
2022/06/07 07:39:28;;;;;;;8.93;4.18;;;18.20;85.90;;;;;;5075890;28;20029;-13
2022/06/07 07:41:55;;;;;;;10.95;4.40;;;18.20;86.00;;;;;;5075695;28;20029;-13
2022/06/07 07:44:23;;;;;;;7.07;4.07;;;18.10;86.20;;;;;;5075067;28;20028;-12
2022/06/07 07:46:51;;;;;;;7.65;4.60;;;18.20;86.20;;;;;;5075980;28;20028;-12
2022/06/07 07:49:21;;;;;;;10.57;4.28;;;18.10;86.50;;;;;;5075199;28;20024;-13
2022/06/07 07:51:50;;;;;;;7.22;3.50;;;18.10;87.00;;;;;;5075443;28;20051;-13
2022/06/07 07:54:18;;;;;;;8.10;3.80;;;18.10;86.80;;;;;;5074848;28;20021;-12
2022/06/07 07:56:44;;;;;;;8.57;4.60;;;18.10;87.00;;;;;;5075048;28;20036;-12
2022/06/07 07:59:13;;;;;;;9.10;4.80;;;18.00;87.40;;;;;;5074950;28;20046;-12
2022/06/07 08:01:40;;;;;;;9.70;6.20;;;18.00;86.70;;;;;;5075316;28;20032;-14
2022/06/07 08:04:06;;;;;;;14.65;6.13;;;18.10;87.20;;;;;;5073672;28;20017;-12
2022/06/07 08:06:33;;;;;;;10.93;6.13;;;18.20;87.20;;;;;;5074623;28;20028;-12
2022/06/07 08:09:01;;;;;;;9.90;5.43;;;18.20;89.10;;;;;;5074731;28;20107;-11
2022/06/07 08:11:34;;;;;;;9.65;6.90;;;18.10;88.20;;;;;;5074924;28;20027;-11
2022/06/07 08:14:01;;;;;;;11.57;6.50;;;18.20;88.60;;;;;;5074377;28;20139;-13
2022/06/07 08:16:28;;;;;;;12.63;6.72;;;18.20;88.10;;;;;;5074503;28;20043;-11
2022/06/07 08:18:54;;;;;;;11.45;6.25;;;18.20;88.10;;;;;;5074507;28;20024;-11
2022/06/07 08:21:25;;;;;;;11.98;6.95;;;18.20;88.50;;;;;;5074486;28;20051;-11
2022/06/07 08:23:55;;;;;;;9.73;5.72;;;18.20;88.00;;;;;;5074470;28;20024;-12
2022/06/07 08:26:23;;;;;;;8.85;4.90;;;18.30;88.00;;;;;;5074231;28;20480;-12
2022/06/07 08:28:49;;;;;;;11.18;5.45;;;18.30;88.00;;;;;;5074722;28;20024;-12
2022/06/07 08:31:20;;;;;;;8.43;5.45;;;18.40;87.90;;;;;;5074584;28;20021;-12
2022/06/07 08:39:17;;;;;;;9.02;5.60;;;18.70;88.80;;;;;;5074402;28;20115;-12
2022/06/07 08:41:53;;;;;;;18.70;11.25;;;18.90;88.00;;;;;;5074875;28;20047;-11
2022/06/07 08:44:22;;;;;;;25.08;15.65;;;18.90;86.90;;;;;;5073941;28;20029;-12
2022/06/07 08:46:52;;;;;;;23.25;16.63;;;19.10;86.60;;;;;;5074331;28;20411;-11
2022/06/07 08:49:19;;;;;;;12.45;7.65;;;19.20;86.20;;;;;;5074325;28;20025;-12
2022/06/07 08:52:02;;;;;;;9.98;4.57;;;19.40;86.20;;;;;;5073943;28;20510;-12
2022/06/07 08:54:32;;;;;;;8.45;5.43;;;19.50;85.70;;;;;;5073617;28;20507;-12
2022/06/07 08:57:13;;;;;;;8.68;4.68;;;19.70;85.10;;;;;;5074301;28;20036;-11
2022/06/07 08:59:39;;;;;;;7.13;4.38;;;19.90;85.00;;;;;;5074148;28;20025;-12
2022/06/07 09:02:49;;;;;;;7.03;4.43;;;20.10;84.70;;;;;;5072492;28;20087;-11
2022/06/07 09:05:16;;;;;;;6.00;3.80;;;20.30;84.60;;;;;;5073754;28;20032;-11
2022/06/07 09:07:44;;;;;;;6.13;3.90;;;20.50;82.70;;;;;;5073630;28;20029;-12
2022/06/07 09:13:24;;;;;;;7.05;4.43;;;20.70;82.40;;;;;;5073610;28;20106;-12
2022/06/07 09:15:54;;;;;;;9.18;5.50;;;20.80;81.00;;;;;;5071844;28;20486;-12
2022/06/07 09:18:25;;;;;;;9.30;5.18;;;20.90;81.90;;;;;;5073736;28;20070;-11
2022/06/07 09:20:57;;;;;;;6.45;4.07;;;21.00;81.10;;;;;;5073509;28;20056;-11
2022/06/07 09:23:46;;;;;;;9.60;4.60;;;21.20;81.20;;;;;;5073687;28;20032;-12
2022/06/07 09:26:18;;;;;;;7.10;4.40;;;21.30;80.90;;;;;;5073212;28;20100;-12
2022/06/07 09:28:48;;;;;;;5.18;3.45;;;21.40;80.70;;;;;;5073202;28;20037;-12
2022/06/07 09:31:21;;;;;;;6.18;3.80;;;21.40;80.50;;;;;;5073298;28;20504;-11
2022/06/07 09:33:56;;;;;;;5.60;3.87;;;21.40;80.60;;;;;;5073332;28;20028;-11
2022/06/07 09:36:27;;;;;;;6.30;3.83;;;21.50;80.30;;;;;;5073393;28;20039;-11
2022/06/07 09:38:57;;;;;;;6.50;3.60;;;21.50;80.30;;;;;;5073722;28;20106;-11
2022/06/07 09:41:37;;;;;;;7.38;3.63;;;21.50;80.40;;;;;;5073512;28;20047;-10
2022/06/07 09:44:06;;;;;;;8.27;3.47;;;21.50;80.30;;;;;;5074395;28;20032;-11
2022/06/07 09:46:32;;;;;;;5.35;3.28;;;21.50;80.30;;;;;;5073086;28;20444;-11
2022/06/07 09:49:00;;;;;;;5.82;4.25;;;21.40;80.40;;;;;;5073408;28;20028;-11
2022/06/07 09:51:34;;;;;;;5.63;3.63;;;21.50;80.50;;;;;;5073348;28;20506;-12
2022/06/07 09:54:13;;;;;;;5.45;3.80;;;21.40;80.80;;;;;;5072911;28;20185;-12
2022/06/07 09:57:03;;;;;;;5.88;3.53;;;21.40;80.90;;;;;;5073392;28;20032;-11
2022/06/07 10:00:02;;;;;;;6.00;3.53;;;21.40;81.00;;;;;;5073135;28;20028;-11
2022/06/07 10:02:45;;;;;;;5.25;3.22;;;21.40;80.90;;;;;;5067434;28;20158;-10
2022/06/07 10:05:35;;;;;;;7.53;3.58;;;21.40;80.60;;;;;;5073672;28;20025;-11
2022/06/07 10:08:20;;;;;;;6.63;3.88;;;21.40;80.10;;;;;;5073217;28;20055;-11
2022/06/07 10:11:15;;;;;;;6.05;4.20;;;21.40;79.90;;;;;;5071702;28;20492;-11
2022/06/07 10:14:25;;;;;;;7.18;4.35;;;21.40;79.90;;;;;;5072887;28;20135;-11
2022/06/07 10:17:24;;;;;;;8.35;4.35;;;21.40;80.00;;;;;;5030851;28;20079;-11
2022/06/07 10:20:07;;;;;;;6.80;4.10;;;21.50;80.00;;;;;;5027018;28;20026;-11
2022/06/07 10:23:05;;;;;;;7.43;4.53;;;21.60;79.70;;;;;;5064492;28;20034;-11
2022/06/07 10:25:57;;;;;;;7.72;4.60;;;21.80;79.60;;;;;;5072730;28;20489;-11
2022/06/07 10:28:54;;;;;;;7.85;5.50;;;22.00;79.10;;;;;;5051577;28;20036;-11
2022/06/07 10:31:29;;;;;;;7.82;4.63;;;22.20;79.20;;;;;;5067213;28;20400;-10
2022/06/07 10:34:05;;;;;;;10.60;6.18;;;22.40;78.60;;;;;;5072932;28;20083;-11
2022/06/07 10:37:10;;;;;;;7.20;5.07;;;22.50;78.00;;;;;;5072863;28;20024;-11
2022/06/07 10:39:42;;;;;;;7.47;4.45;;;22.80;77.90;;;;;;5076783;28;20029;-11
2022/06/07 10:42:26;;;;;;;7.75;4.45;;;23.10;77.40;;;;;;5077042;28;20054;-11
2022/06/07 10:45:19;;;;;;;7.18;3.95;;;23.80;76.50;;;;;;5076329;28;20031;-10
2022/06/07 10:48:06;;;;;;;6.75;4.05;;;24.40;74.80;;;;;;5076408;28;20060;-10
2022/06/07 10:50:41;;;;;;;7.70;4.68;;;25.10;73.50;;;;;;5076147;28;20381;-11
2022/06/07 10:53:19;;;;;;;7.22;4.18;;;25.70;71.40;;;;;;5076441;28;20108;-10
2022/06/07 10:55:50;;;;;;;6.05;4.05;;;26.20;69.90;;;;;;5076854;28;20047;-11
2022/06/07 10:58:35;;;;;;;9.27;4.57;;;26.80;68.40;;;;;;5075927;28;20021;-10
2022/06/07 11:01:02;;;;;;;6.20;4.13;;;27.60;67.50;;;;;;5076461;28;20049;-11
2022/06/07 11:03:46;;;;;;;8.23;3.90;;;28.40;65.00;;;;;;5076285;28;20033;-11
2022/06/07 11:09:41;;;;;;;3.78;3.28;;;29.80;60.90;;;;;;5076392;28;20028;-11
2022/06/07 11:12:24;;;;;;;7.70;3.45;;;30.40;57.90;;;;;;5075943;28;20016;-11
2022/06/07 11:15:02;;;;;;;5.80;3.70;;;31.00;56.80;;;;;;5076216;28;20048;-10
2022/06/07 11:17:33;;;;;;;4.50;3.30;;;31.50;55.80;;;;;;5076229;28;20025;-9
2022/06/07 11:20:02;;;;;;;3.47;2.63;;;31.90;54.00;;;;;;5076049;28;20431;-11
2022/06/07 11:22:53;;;;;;;6.05;3.55;;;32.40;52.00;;;;;;5075769;28;20035;-11
2022/06/07 11:25:29;;;;;;;4.63;2.58;;;32.60;50.20;;;;;;5075634;28;20511;-11
2022/06/07 11:28:06;;;;;;;6.60;3.80;;;33.00;50.80;;;;;;5075921;28;20476;-11
2022/06/07 11:30:37;;;;;;;3.25;2.60;;;33.30;47.00;;;;;;5075424;28;20035;-10
2022/06/07 11:33:25;;;;;;;5.78;3.33;;;33.70;48.10;;;;;;5075682;28;20035;-12
2022/06/07 11:36:11;;;;;;;4.10;2.80;;;34.00;48.00;;;;;;5075662;28;20028;-11
2022/06/07 11:39:04;;;;;;;4.32;2.80;;;34.40;46.50;;;;;;5075226;28;20025;-11
2022/06/07 11:41:47;;;;;;;4.45;2.67;;;34.50;42.70;;;;;;5076317;28;20017;-10
2022/06/07 11:44:16;;;;;;;5.35;3.20;;;34.70;44.90;;;;;;5075688;28;20111;-12
2022/06/07 11:46:59;;;;;;;3.45;2.40;;;35.00;43.00;;;;;;5075584;28;20067;-12
2022/06/07 11:49:26;;;;;;;4.07;3.10;;;35.10;42.90;;;;;;5074914;28;20051;-11
2022/06/07 11:52:13;;;;;;;5.55;2.90;;;35.10;43.60;;;;;;5075447;28;20028;-12
2022/06/07 11:54:45;;;;;;;4.68;3.40;;;35.00;43.10;;;;;;5075364;28;20098;-11
2022/06/07 11:57:32;;;;;;;4.63;3.00;;;34.90;43.00;;;;;;5075421;28;20036;-11
2022/06/07 12:00:03;;;;;;;6.13;3.25;;;35.00;42.90;;;;;;5075395;28;20028;-12
2022/06/07 12:02:35;;;;;;;4.43;3.58;;;35.40;42.30;;;;;;5073546;28;20036;-11
2022/06/07 12:05:36;;;;;;;6.53;4.13;;;35.60;41.50;;;;;;5074853;28;20420;-11
2022/06/07 12:08:17;;;;;;;4.50;3.42;;;35.70;41.10;;;;;;5065510;28;20495;-9
2022/06/07 12:11:00;;;;;;;5.55;3.85;;;35.70;42.00;;;;;;5075155;28;20048;-9
2022/06/07 12:13:54;;;;;;;4.68;3.25;;;36.10;41.20;;;;;;5074521;28;20459;-9
2022/06/07 12:16:36;;;;;;;4.38;2.90;;;36.40;42.10;;;;;;5074826;28;20074;-9
2022/06/07 12:19:05;;;;;;;3.63;2.80;;;36.30;39.30;;;;;;5074994;28;20048;-9
2022/06/07 12:21:44;;;;;;;4.72;2.50;;;36.40;40.00;;;;;;5075546;28;20499;-9
2022/06/07 12:24:16;;;;;;;3.50;2.90;;;36.50;37.90;;;;;;5074564;28;20526;-9
2022/06/07 12:26:47;;;;;;;3.88;2.40;;;36.50;38.10;;;;;;5074857;28;20025;-9
2022/06/07 12:29:21;;;;;;;4.47;2.95;;;36.50;38.00;;;;;;5074450;28;20024;-10
2022/06/07 12:31:49;;;;;;;2.90;2.60;;;36.50;37.50;;;;;;5074726;28;20056;-9
2022/06/07 12:34:21;;;;;;;3.90;2.35;;;36.30;37.30;;;;;;5074011;28;20035;-11
2022/06/07 12:37:08;;;;;;;4.00;2.42;;;36.00;37.90;;;;;;5074629;28;20017;-9
2022/06/07 12:39:45;;;;;;;2.97;2.28;;;35.70;38.50;;;;;;5074179;28;20033;-8
2022/06/07 12:42:16;;;;;;;3.05;2.45;;;35.40;39.40;;;;;;5074403;28;20034;-9
2022/06/07 12:44:53;;;;;;;2.80;2.58;;;35.00;39.60;;;;;;5074665;28;20021;-9
2022/06/07 12:47:34;;;;;;;4.60;2.90;;;34.70;39.90;;;;;;5074131;28;20380;-9
2022/06/07 12:50:02;;;;;;;4.68;2.90;;;34.40;40.20;;;;;;5073991;28;20020;-9
2022/06/07 12:52:32;;;;;;;5.30;2.80;;;33.90;41.70;;;;;;5073981;28;20032;-10
2022/06/07 12:55:10;;;;;;;3.45;2.30;;;33.30;42.80;;;;;;5074435;28;20064;-9
2022/06/07 12:57:50;;;;;;;2.75;2.20;;;32.90;43.40;;;;;;5072659;28;20056;-9
2022/06/07 13:00:38;;;;;;;2.80;2.58;;;32.50;44.50;;;;;;5072837;28;20032;-9
2022/06/07 13:03:22;;;;;;;2.55;2.25;;;32.30;45.30;;;;;;5073485;28;20128;-10
2022/06/07 13:06:06;;;;;;;3.30;2.05;;;32.00;45.50;;;;;;5074100;28;20043;-9
2022/06/07 13:08:36;;;;;;;2.80;2.10;;;31.90;45.70;;;;;;5073425;28;20074;-10
2022/06/07 13:11:06;;;;;;;3.78;2.40;;;32.00;45.50;;;;;;5074243;28;20025;-8
2022/06/07 13:13:38;;;;;;;3.40;2.42;;;32.00;44.80;;;;;;5073290;28;20067;-9
2022/06/07 13:16:09;;;;;;;2.83;2.55;;;32.10;45.10;;;;;;5074181;28;20063;-9
2022/06/07 13:18:42;;;;;;;3.17;2.55;;;32.20;43.90;;;;;;5073630;28;20036;-9
2022/06/07 13:21:17;;;;;;;3.70;2.58;;;32.40;43.40;;;;;;5072339;28;20024;-9
2022/06/07 13:23:49;;;;;;;3.95;2.70;;;32.50;43.20;;;;;;5073394;28;20446;-9
2022/06/07 13:26:23;;;;;;;5.03;3.10;;;32.40;43.30;;;;;;5073515;28;20020;-9
2022/06/07 13:29:12;;;;;;;4.18;2.50;;;32.30;43.60;;;;;;5073340;28;20480;-9
2022/06/07 13:31:41;;;;;;;4.38;3.10;;;31.90;44.40;;;;;;5073386;28;20480;-10